createdAt,value
2019-02-19T00:01:29.118Z,7.20
2019-02-19T00:04:35.473Z,7.10
2019-02-19T00:09:23.157Z,7.10
2019-02-19T00:09:55.862Z,7.10
2019-02-19T00:12:27.176Z,7.10
2019-02-19T00:15:18.882Z,7.20
2019-02-19T00:24:48.020Z,7.30
2019-02-19T00:27:20.928Z,7.20
2019-02-19T00:29:53.169Z,7.10
2019-02-19T00:32:24.146Z,7.00
2019-02-19T00:34:57.044Z,6.90
2019-02-19T00:44:16.520Z,6.90
2019-02-19T00:50:00.323Z,6.80
2019-02-19T00:52:35.016Z,6.80
2019-02-19T00:55:07.865Z,6.70
2019-02-19T01:01:12.948Z,6.80
2019-02-19T01:03:44.782Z,6.80
2019-02-19T01:06:16.216Z,6.70
2019-02-19T01:08:48.857Z,6.70
2019-02-19T01:11:21.462Z,6.70
2019-02-19T01:13:54.986Z,6.60
2019-02-19T01:19:32.108Z,6.70
2019-02-19T01:22:08.093Z,6.60
2019-02-19T01:24:40.275Z,6.60
2019-02-19T01:27:39.366Z,6.70
2019-02-19T01:30:12.255Z,6.70
2019-02-19T01:35:54.031Z,6.70
2019-02-19T01:38:25.475Z,6.60
2019-02-19T01:40:57.167Z,6.60
2019-02-19T01:43:29.905Z,6.60
2019-02-19T01:46:02.621Z,6.60
2019-02-19T01:48:49.451Z,6.60
2019-02-19T01:51:22.654Z,6.60
2019-02-19T01:53:56.984Z,6.70
2019-02-19T01:56:47.287Z,6.80
2019-02-19T01:59:19.386Z,6.90
2019-02-19T02:01:51.969Z,7.00
2019-02-19T02:04:23.441Z,7.00
2019-02-19T02:17:22.914Z,7.10
2019-02-19T02:23:24.601Z,7.20
2019-02-19T02:40:07.494Z,7.00
2019-02-19T02:43:44.795Z,7.10
2019-02-19T02:45:53.570Z,7.10
2019-02-19T02:48:23.211Z,7.10
2019-02-19T02:50:56.961Z,7.10
2019-02-19T02:53:28.634Z,7.00
2019-02-19T02:55:59.914Z,7.10
2019-02-19T03:01:52.580Z,7.00
2019-02-19T03:04:29.480Z,7.00
2019-02-19T03:07:13.713Z,7.00
2019-02-19T03:16:54.970Z,7.00
2019-02-19T03:19:27.054Z,7.10
2019-02-19T03:38:31.944Z,7.20
2019-02-19T03:41:04.224Z,7.20
2019-02-19T03:43:36.907Z,7.20
2019-02-19T03:46:11.984Z,7.30
2019-02-19T03:48:42.371Z,7.40
2019-02-19T03:51:14.626Z,7.40
2019-02-19T03:53:45.836Z,7.40
2019-02-19T03:56:17.467Z,7.40
2019-02-19T03:58:49.470Z,7.50
2019-02-19T04:01:20.876Z,7.70
2019-02-19T04:03:52.301Z,7.70
2019-02-19T04:06:24.187Z,7.60
2019-02-19T04:08:56.400Z,7.70
2019-02-19T04:11:28.067Z,7.70
2019-02-19T04:13:59.473Z,7.80
2019-02-19T04:16:30.897Z,7.80
2019-02-19T04:19:03.537Z,7.80
2019-02-19T04:21:35.506Z,7.70
2019-02-19T04:24:08.023Z,7.70
2019-02-19T04:26:40.888Z,7.60
2019-02-19T04:29:12.911Z,7.60
2019-02-19T04:31:51.588Z,7.60
2019-02-19T04:34:24.249Z,7.60
2019-02-19T04:36:57.088Z,7.60
2019-02-19T04:39:28.977Z,7.40
2019-02-19T04:42:00.774Z,7.50
2019-02-19T04:44:33.322Z,7.40
2019-02-19T04:47:06.134Z,7.40
2019-02-19T04:49:39.809Z,7.40
2019-02-19T04:52:12.340Z,7.40
2019-02-19T04:54:44.456Z,7.30
2019-02-19T04:57:16.041Z,7.40
2019-02-19T04:59:47.450Z,7.30
2019-02-19T05:02:18.425Z,7.20
2019-02-19T05:04:49.937Z,7.20
2019-02-19T05:07:21.261Z,7.20
2019-02-19T05:09:52.278Z,7.20
2019-02-19T05:12:23.583Z,7.30
2019-02-19T05:14:54.946Z,7.30
2019-02-19T05:17:27.881Z,7.30
2019-02-19T05:19:59.277Z,7.30
2019-02-19T05:22:30.277Z,7.20
2019-02-19T05:25:00.939Z,7.20
2019-02-19T05:27:32.672Z,7.20
2019-02-19T05:30:03.573Z,7.20
2019-02-19T05:32:34.301Z,7.20
2019-02-19T05:35:06.323Z,7.20
2019-02-19T05:44:31.516Z,7.30
2019-02-19T05:47:02.278Z,7.20
2019-02-19T05:53:00.445Z,7.20
2019-02-19T05:55:31.374Z,7.10
2019-02-19T05:58:02.508Z,7.10
2019-02-19T06:00:33.471Z,7.10
2019-02-19T06:03:04.046Z,7.10
2019-02-19T06:05:36.123Z,7.20
2019-02-19T06:08:07.457Z,7.20
2019-02-19T06:10:38.890Z,7.20
2019-02-19T06:13:12.105Z,7.30
2019-02-19T06:15:50.998Z,7.30
2019-02-19T06:18:31.357Z,7.30
2019-02-19T06:21:02.678Z,7.20
2019-02-19T06:23:33.821Z,7.20
2019-02-19T06:26:04.845Z,7.30
2019-02-19T06:28:36.368Z,7.30
2019-02-19T06:31:07.534Z,7.20
2019-02-19T06:33:38.862Z,7.30
2019-02-19T06:36:10.097Z,7.30
2019-02-19T06:38:41.625Z,7.40
2019-02-19T06:41:13.274Z,7.40
2019-02-19T06:43:44.649Z,7.40
2019-02-19T06:46:16.462Z,7.40
2019-02-19T06:48:47.509Z,7.40
2019-02-19T06:51:19.180Z,7.40
2019-02-19T06:53:50.339Z,7.40
2019-02-19T06:56:21.598Z,7.40
2019-02-19T06:58:53.210Z,7.40
2019-02-19T07:01:26.382Z,7.30
2019-02-19T07:04:05.521Z,7.40
2019-02-19T07:06:37.530Z,7.40
2019-02-19T07:09:09.374Z,7.50
2019-02-19T07:11:40.640Z,7.40
2019-02-19T07:14:13.248Z,7.40
2019-02-19T07:16:45.496Z,7.40
2019-02-19T07:19:30.710Z,7.50
2019-02-19T07:22:04.709Z,7.50
2019-02-19T07:24:36.101Z,7.40
2019-02-19T07:27:09.343Z,7.30
2019-02-19T07:32:58.080Z,7.40
2019-02-19T07:35:29.664Z,7.50
2019-02-19T07:38:04.611Z,7.50
2019-02-19T07:40:38.052Z,7.50
2019-02-19T07:43:08.789Z,7.40
2019-02-19T07:49:31.910Z,7.40
2019-02-19T07:52:12.096Z,7.50
2019-02-19T07:54:45.800Z,7.50
2019-02-19T07:57:18.135Z,7.50
2019-02-19T07:59:50.457Z,7.50
2019-02-19T08:02:24.827Z,7.50
2019-02-19T08:04:57.379Z,7.50
2019-02-19T08:07:28.740Z,7.50
2019-02-19T08:09:59.983Z,7.50
2019-02-19T08:12:31.637Z,7.50
2019-02-19T08:15:04.906Z,7.50
2019-02-19T08:17:37.793Z,7.50
2019-02-19T08:20:16.109Z,7.50
2019-02-19T08:22:49.885Z,7.50
2019-02-19T08:25:21.335Z,7.50
2019-02-19T08:27:52.915Z,7.50
2019-02-19T08:30:23.519Z,7.50
2019-02-19T08:32:56.876Z,7.50
2019-02-19T08:35:27.711Z,7.60
2019-02-19T08:37:59.877Z,7.70
2019-02-19T08:40:30.578Z,7.60
2019-02-19T08:43:02.219Z,7.60
2019-02-19T08:45:34.217Z,7.60
2019-02-19T08:48:05.992Z,7.70
2019-02-19T08:50:38.298Z,7.80
2019-02-19T08:53:10.150Z,7.80
2019-02-19T08:55:42.510Z,7.80
2019-02-19T08:58:13.913Z,7.80
2019-02-19T09:33:12.534Z,8.30
2019-02-19T09:35:44.673Z,8.40
2019-02-19T09:38:15.690Z,8.30
2019-02-19T09:40:46.073Z,8.30
2019-02-19T09:43:16.630Z,8.20
2019-02-19T09:45:48.143Z,8.30
2019-02-19T09:48:18.453Z,8.40
2019-02-19T09:50:49.396Z,8.50
2019-02-19T09:53:20.472Z,8.50
2019-02-19T09:55:51.351Z,8.40
2019-02-19T09:58:22.534Z,8.40
2019-02-19T10:00:53.605Z,8.30
2019-02-19T10:03:25.446Z,8.30
2019-02-19T10:05:56.624Z,8.20
2019-02-19T10:08:32.709Z,8.20
2019-02-19T10:11:32.456Z,8.30
2019-02-19T10:14:04.527Z,8.30
2019-02-19T10:20:01.075Z,8.10
2019-02-19T10:22:32.126Z,8.10
2019-02-19T10:25:04.587Z,8.10
2019-02-19T10:27:35.402Z,8.00
2019-02-19T10:30:09.575Z,8.00
2019-02-19T10:32:40.168Z,7.90
2019-02-19T10:35:13.220Z,8.00
2019-02-19T10:37:44.363Z,8.00
2019-02-19T10:40:20.109Z,7.90
2019-02-19T10:42:51.268Z,7.90
2019-02-19T10:45:26.815Z,8.00
2019-02-19T10:47:58.876Z,8.00
2019-02-19T10:50:30.432Z,7.90
2019-02-19T10:53:01.077Z,7.90
2019-02-19T10:55:32.263Z,7.90
2019-02-19T10:58:04.948Z,7.80
2019-02-19T11:00:35.958Z,7.80
2019-02-19T11:03:07.228Z,7.80
2019-02-19T11:05:38.314Z,7.80
2019-02-19T11:08:08.786Z,7.80
2019-02-19T11:10:40.566Z,7.80
2019-02-19T11:13:11.683Z,7.80
2019-02-19T11:15:42.811Z,7.70
2019-02-19T11:18:14.546Z,7.70
2019-02-19T11:20:45.336Z,7.70
2019-02-19T11:23:16.043Z,7.70
2019-02-19T11:25:47.945Z,7.60
2019-02-19T11:28:19.879Z,7.60
2019-02-19T11:30:52.426Z,7.60
2019-02-19T11:33:24.881Z,7.60
2019-02-19T11:35:56.870Z,7.60
2019-02-19T11:41:43.037Z,7.70
2019-02-19T11:44:13.880Z,7.70
2019-02-19T11:46:45.904Z,7.60
2019-02-19T11:49:17.676Z,7.60
2019-02-19T11:52:02.268Z,7.60
2019-02-19T11:54:34.590Z,7.60
2019-02-19T11:57:05.575Z,7.50
2019-02-19T11:59:37.565Z,7.50
2019-02-19T12:02:10.507Z,7.50
2019-02-19T12:04:41.782Z,7.60
2019-02-19T12:07:13.965Z,7.60
2019-02-19T12:09:46.810Z,7.60
2019-02-19T12:12:19.231Z,7.60
2019-02-19T12:14:50.417Z,7.60
2019-02-19T12:17:21.192Z,7.60
2019-02-19T12:19:54.957Z,7.60
2019-02-19T12:22:25.840Z,7.70
2019-02-19T12:24:57.127Z,7.80
2019-02-19T12:27:30.546Z,7.80
2019-02-19T12:30:01.543Z,7.80
2019-02-19T12:32:33.176Z,7.80
2019-02-19T12:35:05.507Z,7.80
2019-02-19T12:37:42.076Z,7.80
2019-02-19T12:40:14.578Z,7.70
2019-02-19T12:42:46.566Z,7.70
2019-02-19T12:45:17.567Z,7.80
2019-02-19T12:47:48.115Z,7.70
2019-02-19T12:50:19.767Z,7.70
2019-02-19T12:52:53.868Z,7.70
2019-02-19T12:55:26.353Z,7.80
2019-02-19T12:57:58.427Z,7.80
2019-02-19T13:00:30.810Z,7.70
2019-02-19T13:03:03.425Z,7.80
2019-02-19T13:05:38.302Z,7.80
2019-02-19T13:08:09.682Z,7.80
2019-02-19T13:10:41.129Z,7.90
2019-02-19T13:13:16.279Z,8.00
2019-02-19T13:15:47.599Z,8.00
2019-02-19T13:18:19.369Z,8.00
2019-02-19T13:20:49.810Z,8.10
2019-02-19T13:23:22.569Z,8.10
2019-02-19T13:25:56.307Z,8.10
2019-02-19T13:28:31.884Z,8.20
2019-02-19T13:31:03.348Z,8.20
2019-02-19T13:33:33.783Z,8.20
2019-02-19T13:36:04.858Z,8.20
2019-02-19T13:38:37.763Z,8.20
2019-02-19T13:41:10.082Z,8.30
2019-02-19T13:43:41.099Z,8.30
2019-02-19T13:46:13.487Z,8.30
2019-02-19T13:48:45.792Z,8.30
2019-02-19T13:51:17.275Z,8.30
2019-02-19T13:53:55.657Z,8.40
2019-02-19T13:56:25.959Z,8.40
2019-02-19T13:58:58.339Z,8.40
2019-02-19T14:01:30.593Z,8.40
2019-02-19T14:04:02.195Z,8.50
2019-02-19T14:06:35.884Z,8.50
2019-02-19T14:09:06.744Z,8.40
2019-02-19T14:11:38.953Z,8.30
2019-02-19T14:14:29.786Z,8.40
2019-02-19T14:17:00.660Z,8.30
2019-02-19T14:19:39.617Z,8.30
2019-02-19T14:22:22.135Z,8.20
2019-02-19T14:25:03.944Z,8.30
2019-02-19T14:27:56.127Z,8.30
2019-02-19T14:30:46.597Z,8.30
2019-02-19T14:33:27.041Z,8.30
2019-02-19T14:36:12.459Z,8.40
2019-02-19T14:38:46.704Z,8.40
2019-02-19T14:41:35.031Z,8.40
2019-02-19T14:44:22.587Z,8.30
2019-02-19T14:47:04.435Z,8.40
2019-02-19T14:49:53.609Z,8.30
2019-02-19T14:52:45.924Z,8.20
2019-02-19T14:55:27.157Z,8.30
2019-02-19T14:58:05.547Z,8.20
2019-02-19T15:00:46.740Z,8.20
2019-02-19T15:03:26.376Z,8.30
2019-02-19T15:06:02.456Z,8.30
2019-02-19T15:08:45.224Z,8.30
2019-02-19T15:11:35.635Z,8.30
2019-02-19T15:14:11.618Z,8.30
2019-02-19T15:16:52.353Z,8.30
2019-02-19T15:19:39.153Z,8.20
2019-02-19T15:22:08.140Z,8.20
2019-02-19T15:24:43.247Z,8.20
2019-02-19T15:27:15.757Z,8.10
2019-02-19T15:29:55.288Z,8.10
2019-02-19T15:32:44.886Z,8.20
2019-02-19T15:35:21.247Z,8.10
2019-02-19T15:38:12.732Z,8.10
2019-02-19T15:40:48.906Z,8.00
2019-02-19T15:43:31.854Z,7.90
2019-02-19T15:46:13.606Z,7.90
2019-02-19T15:48:58.234Z,7.80
2019-02-19T15:51:34.077Z,7.80
2019-02-19T15:54:10.086Z,7.80
2019-02-19T15:56:58.065Z,7.80
2019-02-19T15:59:45.390Z,7.80
2019-02-19T16:02:17.923Z,7.80
2019-02-19T16:05:06.421Z,7.70
2019-02-19T16:07:44.110Z,7.80
2019-02-19T16:10:16.335Z,7.80
2019-02-19T16:13:04.383Z,7.80
2019-02-19T16:15:40.018Z,7.70
2019-02-19T16:18:21.800Z,7.70
2019-02-19T16:21:06.616Z,7.70
2019-02-19T16:23:42.202Z,7.60
2019-02-19T16:26:14.839Z,7.60
2019-02-19T16:28:50.756Z,7.60
2019-02-19T16:31:41.498Z,7.50
2019-02-19T16:34:17.909Z,7.50
2019-02-19T16:36:54.991Z,7.50
2019-02-19T16:40:03.275Z,7.50
2019-02-19T16:42:35.753Z,7.40
2019-02-19T16:45:13.109Z,7.40
2019-02-19T16:47:54.452Z,7.40
2019-02-19T16:50:33.270Z,7.40
2019-02-19T16:53:14.875Z,7.40
2019-02-19T16:55:50.871Z,7.40
2019-02-19T17:01:42.680Z,7.50
2019-02-19T17:04:23.920Z,7.50
2019-02-19T17:07:03.150Z,7.50
2019-02-19T17:09:40.139Z,7.40
2019-02-19T17:12:19.671Z,7.40
2019-02-19T17:14:59.330Z,7.30
2019-02-19T17:17:42.605Z,7.20
2019-02-19T17:20:28.216Z,7.10
2019-02-19T17:22:53.517Z,7.00
2019-02-19T17:25:34.559Z,6.90
2019-02-19T17:28:23.113Z,6.90
2019-02-19T17:30:59.181Z,6.80
2019-02-19T17:33:41.738Z,6.80
2019-02-19T17:36:34.679Z,6.70
2019-02-19T17:39:11.705Z,6.60
2019-02-19T17:41:53.646Z,6.60
2019-02-19T17:44:37.261Z,6.60
2019-02-19T17:47:15.687Z,6.50
2019-02-19T17:49:47.562Z,6.50
2019-02-19T17:52:26.100Z,6.40
2019-02-19T17:55:16.942Z,6.50
2019-02-19T17:58:39.874Z,6.50
2019-02-19T18:01:12.588Z,6.50
2019-02-19T18:03:54.355Z,6.40
2019-02-19T18:06:40.383Z,6.40
2019-02-19T18:09:31.201Z,6.50
2019-02-19T18:12:04.503Z,6.50
2019-02-19T18:14:47.557Z,6.50
2019-02-19T18:17:39.692Z,6.60
2019-02-19T18:20:10.661Z,6.60
2019-02-19T18:22:41.689Z,6.70
2019-02-19T18:25:13.046Z,6.70
2019-02-19T18:27:44.766Z,6.80
2019-02-19T18:30:16.191Z,6.70
2019-02-19T18:32:48.172Z,6.70
2019-02-19T18:35:19.931Z,6.70
2019-02-19T18:37:50.875Z,6.70
2019-02-19T18:40:23.412Z,6.70
2019-02-19T18:42:56.513Z,6.70
2019-02-19T18:45:27.502Z,6.80
2019-02-19T18:47:59.931Z,6.90
2019-02-19T18:50:32.639Z,6.90
2019-02-19T18:53:04.060Z,6.90
2019-02-19T18:55:37.583Z,6.90
2019-02-19T18:58:09.070Z,6.90
2019-02-19T19:00:41.591Z,6.80
2019-02-19T19:03:13.599Z,6.70
2019-02-19T19:05:44.411Z,6.70
2019-02-19T19:08:15.607Z,6.80
2019-02-19T19:10:46.667Z,6.90
2019-02-19T19:13:18.992Z,7.00
2019-02-19T19:15:52.889Z,6.90
2019-02-19T19:18:25.665Z,6.90
2019-02-19T19:21:07.479Z,7.00
2019-02-19T19:23:31.593Z,6.90
2019-02-19T19:26:03.684Z,7.00
2019-02-19T19:28:35.697Z,6.90
2019-02-19T19:31:10.964Z,6.90
2019-02-19T19:33:42.113Z,6.90
2019-02-19T19:36:13.759Z,6.90
2019-02-19T19:38:45.263Z,7.00
2019-02-19T19:41:16.371Z,6.90
2019-02-19T19:43:47.288Z,6.90
2019-02-19T19:46:18.455Z,6.90
2019-02-19T19:48:49.171Z,6.90
2019-02-19T19:51:20.432Z,6.90
2019-02-19T19:53:53.992Z,6.90
2019-02-19T19:56:26.729Z,6.80
2019-02-19T19:59:00.186Z,6.90
2019-02-19T20:01:31.841Z,6.90
2019-02-19T20:04:04.998Z,6.90
2019-02-19T20:06:36.705Z,6.90
2019-02-19T20:09:07.671Z,6.90
2019-02-19T20:11:38.563Z,6.90
2019-02-19T20:14:09.915Z,6.90
2019-02-19T20:16:42.526Z,6.90
2019-02-19T20:19:13.560Z,6.80
2019-02-19T20:21:45.229Z,6.90
2019-02-19T20:24:17.518Z,6.90
2019-02-19T20:26:48.746Z,6.90
2019-02-19T20:29:19.825Z,6.90
2019-02-19T20:31:51.505Z,6.90
2019-02-19T20:34:22.739Z,6.90
2019-02-19T20:36:54.953Z,6.90
2019-02-19T20:39:25.756Z,6.90
2019-02-19T20:41:57.234Z,6.90
2019-02-19T20:44:29.636Z,6.90
2019-02-19T20:47:01.639Z,6.90
2019-02-19T20:49:33.394Z,6.90
2019-02-19T20:52:07.192Z,6.90
2019-02-19T20:54:38.650Z,6.90
2019-02-19T20:57:10.965Z,6.90
2019-02-19T20:59:42.680Z,7.00
2019-02-19T21:02:14.825Z,7.00
2019-02-19T21:04:46.764Z,7.10
2019-02-19T21:07:18.128Z,7.10
2019-02-19T21:09:49.753Z,7.00
2019-02-19T21:12:21.436Z,7.10
2019-02-19T21:14:53.541Z,7.10
2019-02-19T21:17:26.097Z,7.00
2019-02-19T21:19:56.649Z,6.90
2019-02-19T21:22:27.373Z,7.00
2019-02-19T21:24:58.761Z,7.00
2019-02-19T21:27:29.957Z,7.00
2019-02-19T21:30:02.437Z,6.90
2019-02-19T21:32:33.079Z,7.00
2019-02-19T21:35:06.596Z,7.00
2019-02-19T21:37:37.800Z,7.10
2019-02-19T21:40:15.576Z,7.00
2019-02-19T21:42:46.725Z,7.00
2019-02-19T21:45:17.405Z,7.00
2019-02-19T21:47:48.567Z,7.00
2019-02-19T21:50:20.535Z,7.00
2019-02-19T21:52:52.272Z,7.00
2019-02-19T21:55:24.231Z,7.00
2019-02-19T21:57:56.196Z,6.90
2019-02-19T22:00:27.411Z,7.00
2019-02-19T22:02:58.023Z,7.00
2019-02-19T22:05:29.650Z,7.10
2019-02-19T22:08:02.451Z,7.00
2019-02-19T22:10:34.774Z,6.90
2019-02-19T22:13:07.325Z,6.90
2019-02-19T22:15:38.807Z,7.00
2019-02-19T22:18:12.664Z,6.90
2019-02-19T22:20:48.750Z,7.00
2019-02-19T22:23:22.479Z,7.00
2019-02-19T22:25:55.095Z,7.00
2019-02-19T22:28:25.601Z,7.10
2019-02-19T22:30:56.907Z,7.00
2019-02-19T22:33:28.184Z,6.90
2019-02-19T22:35:59.604Z,6.90
2019-02-19T22:38:30.734Z,6.90
2019-02-19T22:41:02.265Z,6.90
2019-02-19T22:43:33.585Z,6.90
2019-02-19T22:46:04.530Z,6.90
2019-02-19T22:48:36.669Z,7.00
2019-02-19T22:51:07.800Z,6.90
2019-02-19T22:53:50.695Z,6.90
2019-02-19T22:56:33.197Z,7.00
2019-02-19T22:59:05.705Z,6.90
2019-02-19T23:01:40.477Z,6.90
2019-02-19T23:04:12.655Z,6.90
2019-02-19T23:06:43.767Z,6.90
2019-02-19T23:09:15.061Z,6.90
2019-02-19T23:11:47.011Z,6.90
2019-02-19T23:14:19.441Z,6.90
2019-02-19T23:16:51.863Z,7.00
2019-02-19T23:19:23.654Z,7.00
2019-02-19T23:22:11.117Z,7.00
2019-02-19T23:24:42.160Z,7.00
2019-02-19T23:27:12.683Z,6.90
2019-02-19T23:29:46.102Z,7.00
2019-02-19T23:32:18.281Z,6.90
2019-02-19T23:34:51.010Z,6.90
2019-02-19T23:37:23.245Z,7.00
2019-02-19T23:39:54.703Z,7.10
2019-02-19T23:42:26.877Z,7.10
2019-02-19T23:45:05.215Z,7.00
2019-02-19T23:47:36.632Z,7.10
2019-02-19T23:50:09.611Z,7.00
2019-02-19T23:52:40.752Z,7.00
2019-02-19T23:55:11.126Z,7.00
2019-02-19T23:57:42.590Z,7.00
